Seacod — DDPW — position and weather

sailwx.info

Track history (hours):
 
Tides and Currents Weather Stations Pressure Air Temp Water Temp Dewpoint Dewpoint Depression Visibility Wind Speed Wind Dir Waves Ship Positions

Seacod

Last reported at 2015-Mar-03 05:22 UTC. Time now 2015-Mar-07 04:25 UTC.
Position N 50°28' W 005°50'.

Length 188 m; draft 11 m.

Type: Ship. MMSI: 218019000.

Date/timePositionNaut miles runAvg speedWind from/ knotsBaromVisibWave heightAir tempDewpointWater temp
2015-Mar-03 05:22N 50°28' W 005°50'171 8.5
2015-Mar-02 09:17N 50°18' W 001°22'29 9.5
2015-Mar-02 06:16N 50°25' W 000°38'11 9.5
2015-Mar-02 05:07N 50°26' W 000°21'1810.8
2015-Mar-02 03:28N 50°31' E 000°05'1111.8
2015-Mar-02 02:33N 50°34' E 000°22'1211.9
2015-Mar-02 01:33N 50°38' E 000°39'1211.8
2015-Mar-02 00:33N 50°46' E 000°53'1311.3
2015-Mar-01 23:26N 50°55' E 001°08'910.3
2015-Mar-01 22:33N 51°00' E 001°19'10 9.6
2015-Mar-01 21:33N 51°06' E 001°31'1010.1
2015-Mar-01 20:33N 51°12' E 001°44'1111.3
2015-Mar-01 19:33N 51°22' E 001°53'1312.7
2015-Mar-01 18:32N 51°33' E 002°06'47710.3
2015-Feb-27 20:08N 57°49' E 010°31'711.8
2015-Feb-27 19:33N 57°49' E 010°44'9 8.6
2015-Feb-27 18:33N 57°40' E 010°43'1 0.7
2015-Feb-27 17:06N 57°41' E 010°43'0 0.0
2015-Feb-27 16:15N 57°41' E 010°43'0 0.0
2015-Feb-27 15:33N 57°41' E 010°43'0 0.0
2015-Feb-27 14:30N 57°41' E 010°43'0 0.0
2015-Feb-27 11:24N 57°41' E 010°43'0 0.0
2015-Feb-27 10:24N 57°41' E 010°43'0 0.0
2015-Feb-27 09:21N 57°41' E 010°43'3 3.1
2015-Feb-27 08:33N 57°43' E 010°46'6 5.8
2015-Feb-27 07:33N 57°49' E 010°50'7 6.5
2015-Feb-27 06:33N 57°55' E 010°54'7 6.5
2015-Feb-27 05:33N 58°01' E 010°58'1 1.1
2015-Feb-27 04:33N 57°60' E 010°57'7 6.8
2015-Feb-27 03:33N 57°54' E 010°53'2 1.8
2015-Feb-27 02:33N 57°52' E 010°52'6 5.8
2015-Feb-27 01:33N 57°57' E 010°57'6 5.8
2015-Feb-27 00:33N 58°02' E 011°01'6 5.6
2015-Feb-26 23:33N 58°08' E 011°05'5 5.1
2015-Feb-26 22:33N 58°12' E 011°09'6 5.9
2015-Feb-26 21:33N 58°17' E 011°16'7 0.5
2015-Feb-26 07:04N 58°21' E 011°26'0 0.0
2015-Feb-26 06:04N 58°21' E 011°26'0 0.0
2015-Feb-26 05:28N 58°21' E 011°26'0 0.0
2015-Feb-26 04:04N 58°21' E 011°26'0 0.0
2015-Feb-26 03:28N 58°21' E 011°26'0 0.0
2015-Feb-26 02:28N 58°21' E 011°26'0 0.0
2015-Feb-26 01:10N 58°21' E 011°26'0 0.0
2015-Feb-26 00:22N 58°21' E 011°26'0 0.0
2015-Feb-25 23:27N 58°21' E 011°26'0 0.0
2015-Feb-25 22:33N 58°21' E 011°26'0 0.0
2015-Feb-25 19:33N 58°21' E 011°26'0 0.0
2015-Feb-25 18:21N 58°21' E 011°26'0 0.0
2015-Feb-25 17:33N 58°21' E 011°26'0 0.0
2015-Feb-25 16:24N 58°21' E 011°26'0 0.3
2015-Feb-25 15:34N 58°22' E 011°26'1010.1
2015-Feb-25 14:34N 58°15' E 011°12'1211.9
2015-Feb-25 13:33N 58°09' E 010°52'1413.7
2015-Feb-25 12:33N 58°02' E 010°30'28512.9
2015-Feb-24 14:26N 54°20' E 005°08'1213.1
2015-Feb-24 13:32N 54°09' E 005°00'1512.9
2015-Feb-24 12:23N 53°54' E 004°54'1112.6
2015-Feb-24 11:28N 53°43' E 004°53'1213.1
2015-Feb-24 10:33N 53°32' E 004°47'1313.2
2015-Feb-24 09:33N 53°19' E 004°41'1514.2
2015-Feb-24 08:29N 53°06' E 004°28'4414.3
2015-Feb-24 05:25N 52°31' E 003°43'6613.3
2015-Feb-24 00:27N 51°42' E 002°31'1011.6
2015-Feb-23 23:33N 51°34' E 002°20'1211.6
2015-Feb-23 22:33N 51°25' E 002°09'1211.7
2015-Feb-23 21:33N 51°13' E 002°04'1212.5
2015-Feb-23 20:33N 51°07' E 001°47'1313.1
2015-Feb-23 19:34N 50°58' E 001°32'31810.8
2015-Feb-22 14:08N 47°44' W 004°55'15311.1
2015-Feb-22 00:23N 46°11' W 001°57'1211.5
2015-Feb-21 23:21N 46°08' W 001°40'1113.4
2015-Feb-21 22:33N 46°07' W 001°25'  
Track history (hours):
 
Tides and Currents Weather Stations Pressure Air Temp Water Temp Dewpoint Dewpoint Depression Visibility Wind Speed Wind Dir Waves Ship Positions

Seacod

Last reported at 2015-Mar-03 05:22 UTC. Time now 2015-Mar-07 04:25 UTC.
Position N 50°28' W 005°50'.

Length 188 m; draft 11 m.

Type: Ship. MMSI: 218019000.

Date/timePositionNaut miles runAvg speedWind from/ knotsBaromVisibWave heightAir tempDewpointWater temp
2015-Mar-03 05:22N 50°28' W 005°50'171 8.5
2015-Mar-02 09:17N 50°18' W 001°22'29 9.5
2015-Mar-02 06:16N 50°25' W 000°38'11 9.5
2015-Mar-02 05:07N 50°26' W 000°21'1810.8
2015-Mar-02 03:28N 50°31' E 000°05'1111.8
2015-Mar-02 02:33N 50°34' E 000°22'1211.9
2015-Mar-02 01:33N 50°38' E 000°39'1211.8
2015-Mar-02 00:33N 50°46' E 000°53'1311.3
2015-Mar-01 23:26N 50°55' E 001°08'910.3
2015-Mar-01 22:33N 51°00' E 001°19'10 9.6
2015-Mar-01 21:33N 51°06' E 001°31'1010.1
2015-Mar-01 20:33N 51°12' E 001°44'1111.3
2015-Mar-01 19:33N 51°22' E 001°53'1312.7
2015-Mar-01 18:32N 51°33' E 002°06'47710.3
2015-Feb-27 20:08N 57°49' E 010°31'711.8
2015-Feb-27 19:33N 57°49' E 010°44'9 8.6
2015-Feb-27 18:33N 57°40' E 010°43'1 0.7
2015-Feb-27 17:06N 57°41' E 010°43'0 0.0
2015-Feb-27 16:15N 57°41' E 010°43'0 0.0
2015-Feb-27 15:33N 57°41' E 010°43'0 0.0
2015-Feb-27 14:30N 57°41' E 010°43'0 0.0
2015-Feb-27 11:24N 57°41' E 010°43'0 0.0
2015-Feb-27 10:24N 57°41' E 010°43'0 0.0
2015-Feb-27 09:21N 57°41' E 010°43'3 3.1
2015-Feb-27 08:33N 57°43' E 010°46'6 5.8
2015-Feb-27 07:33N 57°49' E 010°50'7 6.5
2015-Feb-27 06:33N 57°55' E 010°54'7 6.5
2015-Feb-27 05:33N 58°01' E 010°58'1 1.1
2015-Feb-27 04:33N 57°60' E 010°57'7 6.8
2015-Feb-27 03:33N 57°54' E 010°53'2 1.8
2015-Feb-27 02:33N 57°52' E 010°52'6 5.8
2015-Feb-27 01:33N 57°57' E 010°57'6 5.8
2015-Feb-27 00:33N 58°02' E 011°01'6 5.6
2015-Feb-26 23:33N 58°08' E 011°05'5 5.1
2015-Feb-26 22:33N 58°12' E 011°09'6 5.9
2015-Feb-26 21:33N 58°17' E 011°16'7 0.5
2015-Feb-26 07:04N 58°21' E 011°26'0 0.0
2015-Feb-26 06:04N 58°21' E 011°26'0 0.0
2015-Feb-26 05:28N 58°21' E 011°26'0 0.0
2015-Feb-26 04:04N 58°21' E 011°26'0 0.0
2015-Feb-26 03:28N 58°21' E 011°26'0 0.0
2015-Feb-26 02:28N 58°21' E 011°26'0 0.0
2015-Feb-26 01:10N 58°21' E 011°26'0 0.0
2015-Feb-26 00:22N 58°21' E 011°26'0 0.0
2015-Feb-25 23:27N 58°21' E 011°26'0 0.0
2015-Feb-25 22:33N 58°21' E 011°26'0 0.0
2015-Feb-25 19:33N 58°21' E 011°26'0 0.0
2015-Feb-25 18:21N 58°21' E 011°26'0 0.0
2015-Feb-25 17:33N 58°21' E 011°26'0 0.0
2015-Feb-25 16:24N 58°21' E 011°26'0 0.3
2015-Feb-25 15:34N 58°22' E 011°26'1010.1
2015-Feb-25 14:34N 58°15' E 011°12'1211.9
2015-Feb-25 13:33N 58°09' E 010°52'1413.7
2015-Feb-25 12:33N 58°02' E 010°30'28512.9
2015-Feb-24 14:26N 54°20' E 005°08'1213.1
2015-Feb-24 13:32N 54°09' E 005°00'1512.9
2015-Feb-24 12:23N 53°54' E 004°54'1112.6
2015-Feb-24 11:28N 53°43' E 004°53'1213.1
2015-Feb-24 10:33N 53°32' E 004°47'1313.2
2015-Feb-24 09:33N 53°19' E 004°41'1514.2
2015-Feb-24 08:29N 53°06' E 004°28'4414.3
2015-Feb-24 05:25N 52°31' E 003°43'6613.3
2015-Feb-24 00:27N 51°42' E 002°31'1011.6
2015-Feb-23 23:33N 51°34' E 002°20'1211.6
2015-Feb-23 22:33N 51°25' E 002°09'1211.7
2015-Feb-23 21:33N 51°13' E 002°04'1212.5
2015-Feb-23 20:33N 51°07' E 001°47'1313.1
2015-Feb-23 19:34N 50°58' E 001°32'31810.8
2015-Feb-22 14:08N 47°44' W 004°55'15311.1
2015-Feb-22 00:23N 46°11' W 001°57'1211.5
2015-Feb-21 23:21N 46°08' W 001°40'1113.4
2015-Feb-21 22:33N 46°07' W 001°25'  

Dump ship's entire track history